Terminal Aerodrome Forecast
Issued by NWS

Home | Current Version | Previous Version | Text Only | Print | Product List | Glossary On
Versions: 1 2 3 4 5 6 7 8 9 10 11 12 13 14 15 16 17 18 19 20 21 22 23 24 25 26
092
FTUS45 KFGZ 212007 AAA
TAFPRC
TAF AMD
KPRC 212007Z 2120/2218 25010G18KT P6SM SCT015
      TEMPO 2120/2123 3SM -RASN BKN015
     FM220100 22006KT P6SM SCT020 SCT250=

USA.gov is the U.S. government's official web portal to all federal, state and local government web resources and services.